Iguazu, Argentina

11:36 AM ART on July 24, 2016 (GMT -0300)
Mayor D Carlos Eduardo Krause | | Change Station

Elev 886 ft 25.74 °S, 54.47 °W | Updated 36 minutes ago

Clear
Clear
66 °F
Feels Like 66 °F
N
7
Wind Variable Wind from NE

Today
High -- | Low -- °F
--% Chance of Precip.
Yesterday
High -- | Low -- °F
Precip. -- in
Pressure 30.15 in
Visibility -9999.0 miles
Clouds
Dew Point 61 °F
Humidity 83%
Rainfall 0.00 in
Snow Depth Not available.
7:20 AM 6:08 PM
Waning Gibbous, 76% visible
METAR SARI 241400Z 05006KT CAVOK 19/16 Q1021
Pressure 30.15 in
Visibility -9999.0 miles
Clouds
Dew Point 61 °F
Humidity 83%
Rainfall 0.00 in
Snow Depth Not available.
7:20 AM 6:08 PM
Waning Gibbous, 76% visible
METAR SARI 241400Z 05006KT CAVOK 19/16 Q1021

10-Day Weather Forecast

No radar image for this location.
×

Almanac

Astronomy

Jul. 24, 2016 Rise Set
Actual Time
Civil Twilight
Nautical Twilight
Astronomical Twilight
Moon
Length of Visible Light
Length of Day
Tomorrow will be .
, % of the Moon is Illuminated

Today's Extremes

Country Highs Country Lows

Community

WunderPhotos

Upload Photos

1,927,066 photos uploaded!

WunderBlog® & News

Nearby

Air Quality

  Air Quality AQ Index Pollutant
Not available.

Snow Depth

Station Depth Elevation

Earthquake Activity

City Distance Mag. Time & Date
Minimum magnitude displayed is 2.5.

Coastal Water Temperatures

Place Temperature

Stations

Nearby Weather Stations

Station Location Temp. Windchill Dew Point Humidity Wind Precip. Elev Updated Type